createdAt,value
2018-08-24T00:00:14.357Z,78.70
2018-08-24T00:02:49.560Z,78.60
2018-08-24T00:05:24.971Z,78.30
2018-08-24T00:08:00.217Z,78.00
2018-08-24T00:10:35.102Z,78.50
2018-08-24T00:13:10.204Z,79.10
2018-08-24T00:24:36.439Z,78.80
2018-08-24T00:27:12.031Z,79.20
2018-08-24T00:29:46.733Z,79.00
2018-08-24T00:32:21.396Z,79.10
2018-08-24T00:34:56.227Z,79.30
2018-08-24T00:37:31.034Z,79.20
2018-08-24T00:40:06.671Z,79.40
2018-08-24T00:42:41.576Z,80.40
2018-08-24T00:45:16.502Z,80.70
2018-08-24T00:47:51.375Z,80.60
2018-08-24T00:50:26.295Z,80.40
2018-08-24T00:53:02.655Z,78.00
2018-08-24T00:55:37.603Z,76.20
2018-08-24T00:58:14.519Z,74.90
2018-08-24T01:00:49.990Z,74.10
2018-08-24T01:03:25.355Z,73.20
2018-08-24T01:06:00.786Z,73.60
2018-08-24T01:08:36.460Z,73.30
2018-08-24T01:11:12.632Z,73.50
2018-08-24T01:13:50.643Z,73.80
2018-08-24T01:16:31.474Z,73.60
2018-08-24T01:19:07.006Z,76.70
2018-08-24T01:21:42.438Z,82.00
2018-08-24T01:24:17.469Z,85.60
2018-08-24T01:26:57.294Z,87.10
2018-08-24T01:29:33.526Z,88.50
2018-08-24T01:32:08.367Z,89.30
2018-08-24T01:34:43.975Z,89.80
2018-08-24T01:37:18.738Z,90.00
2018-08-24T01:39:53.471Z,90.40
2018-08-24T01:42:28.293Z,90.60
2018-08-24T01:45:03.202Z,90.20
2018-08-24T01:47:38.059Z,90.20
2018-08-24T01:50:13.207Z,90.00
2018-08-24T01:52:48.222Z,90.10
2018-08-24T01:55:23.032Z,90.40
2018-08-24T01:57:58.194Z,90.40
2018-08-24T02:00:33.222Z,90.70
2018-08-24T02:03:07.972Z,90.60
2018-08-24T02:05:42.731Z,90.70
2018-08-24T02:08:17.755Z,90.60
2018-08-24T02:10:53.054Z,91.10
2018-08-24T02:13:33.133Z,91.70
2018-08-24T02:16:07.956Z,92.10
2018-08-24T02:18:48.772Z,92.30
2018-08-24T02:21:29.006Z,92.30
2018-08-24T02:24:04.682Z,92.50
2018-08-24T02:26:40.683Z,93.00
2018-08-24T02:29:15.649Z,93.50
2018-08-24T02:31:55.461Z,93.60
2018-08-24T02:34:30.397Z,93.40
2018-08-24T02:37:05.493Z,93.70
2018-08-24T02:39:40.766Z,93.90
2018-08-24T02:42:15.794Z,94.30
2018-08-24T02:44:50.926Z,94.10
2018-08-24T02:47:25.919Z,93.80
2018-08-24T02:50:00.753Z,94.30
2018-08-24T02:55:30.956Z,94.20
2018-08-24T02:58:11.277Z,94.60
2018-08-24T03:00:46.591Z,94.80
2018-08-24T03:03:21.310Z,94.70
2018-08-24T03:05:56.225Z,94.80
2018-08-24T03:08:30.968Z,95.00
2018-08-24T03:11:05.931Z,94.50
2018-08-24T03:13:40.761Z,94.60
2018-08-24T03:16:15.854Z,94.80
2018-08-24T03:18:50.866Z,94.60
2018-08-24T03:21:25.751Z,94.40
2018-08-24T03:24:00.735Z,94.80
2018-08-24T03:26:35.519Z,94.70
2018-08-24T03:29:10.656Z,94.50
2018-08-24T03:31:45.604Z,94.30
2018-08-24T03:34:21.186Z,94.10
2018-08-24T03:36:55.927Z,94.00
2018-08-24T03:39:30.742Z,94.00
2018-08-24T03:42:05.993Z,93.90
2018-08-24T03:44:40.875Z,93.80
2018-08-24T03:47:15.726Z,93.90
2018-08-24T03:49:51.270Z,94.10
2018-08-24T03:52:26.198Z,94.20
2018-08-24T03:55:00.899Z,94.60
2018-08-24T03:57:36.602Z,94.70
2018-08-24T04:00:16.152Z,94.40
2018-08-24T04:02:51.826Z,94.30
2018-08-24T04:05:26.645Z,94.30
2018-08-24T04:08:01.574Z,94.40
2018-08-24T04:10:36.822Z,94.50
2018-08-24T04:13:11.739Z,94.70
2018-08-24T04:15:46.622Z,94.60
2018-08-24T04:18:21.553Z,94.90
2018-08-24T04:20:57.404Z,95.20
2018-08-24T04:23:32.405Z,94.90
2018-08-24T04:26:07.226Z,94.50
2018-08-24T04:28:42.273Z,94.50
2018-08-24T04:31:17.427Z,94.80
2018-08-24T04:33:52.566Z,94.70
2018-08-24T04:36:27.622Z,94.70
2018-08-24T04:39:02.642Z,94.70
2018-08-24T04:41:37.741Z,94.80
2018-08-24T04:44:13.146Z,94.80
2018-08-24T04:46:49.739Z,94.90
2018-08-24T04:49:24.934Z,95.00
2018-08-24T04:52:00.110Z,95.20
2018-08-24T04:54:34.770Z,95.00
2018-08-24T04:57:09.929Z,94.50
2018-08-24T04:59:45.273Z,94.40
2018-08-24T05:02:20.044Z,94.90
2018-08-24T05:04:54.948Z,95.20
2018-08-24T05:07:29.907Z,95.50
2018-08-24T05:10:04.968Z,95.10
2018-08-24T05:12:39.757Z,94.50
2018-08-24T05:15:14.596Z,94.40
2018-08-24T05:17:49.206Z,94.60
2018-08-24T05:20:23.850Z,94.30
2018-08-24T05:22:59.346Z,94.70
2018-08-24T05:25:34.117Z,94.60
2018-08-24T05:28:08.999Z,94.50
2018-08-24T05:30:44.265Z,94.90
2018-08-24T05:33:19.233Z,95.20
2018-08-24T05:35:57.250Z,95.50
2018-08-24T05:38:32.145Z,95.60
2018-08-24T05:41:07.567Z,95.30
2018-08-24T05:43:42.524Z,95.60
2018-08-24T05:46:17.221Z,95.70
2018-08-24T05:48:52.789Z,95.70
2018-08-24T05:51:27.677Z,95.20
2018-08-24T05:54:02.509Z,94.90
2018-08-24T05:56:37.733Z,94.60
2018-08-24T05:59:12.947Z,94.60
2018-08-24T06:01:47.674Z,95.10
2018-08-24T06:04:22.806Z,95.20
2018-08-24T06:06:58.824Z,95.40
2018-08-24T06:09:33.741Z,95.60
2018-08-24T06:12:08.843Z,95.60
2018-08-24T06:14:44.351Z,95.60
2018-08-24T06:17:24.257Z,94.70
2018-08-24T06:19:59.432Z,94.00
2018-08-24T06:22:34.486Z,94.20
2018-08-24T06:25:10.073Z,95.00
2018-08-24T06:27:45.784Z,94.80
2018-08-24T06:30:20.996Z,94.90
2018-08-24T06:32:56.502Z,94.60
2018-08-24T06:35:32.867Z,94.80
2018-08-24T06:38:08.494Z,95.00
2018-08-24T06:40:44.906Z,94.80
2018-08-24T06:43:20.722Z,93.80
2018-08-24T06:45:56.233Z,92.90
2018-08-24T06:48:31.794Z,92.80
2018-08-24T06:51:14.967Z,92.80
2018-08-24T06:53:50.348Z,92.50
2018-08-24T06:56:29.278Z,92.30
2018-08-24T06:59:04.959Z,92.30
2018-08-24T07:01:40.105Z,91.90
2018-08-24T07:04:16.279Z,92.00
2018-08-24T07:06:51.558Z,92.30
2018-08-24T07:09:27.309Z,92.10
2018-08-24T07:12:02.679Z,91.80
2018-08-24T07:14:38.240Z,91.90
2018-08-24T07:17:14.753Z,91.90
2018-08-24T07:19:50.121Z,92.30
2018-08-24T07:22:25.641Z,92.10
2018-08-24T07:25:01.103Z,92.10
2018-08-24T07:27:36.707Z,91.50
2018-08-24T07:30:12.375Z,91.80
2018-08-24T07:32:54.697Z,91.60
2018-08-24T07:35:30.126Z,91.80
2018-08-24T07:38:05.637Z,91.30
2018-08-24T07:40:41.068Z,91.60
2018-08-24T07:43:16.813Z,91.70
2018-08-24T07:45:52.896Z,92.20
2018-08-24T07:48:28.997Z,92.40
2018-08-24T07:51:04.398Z,92.00
2018-08-24T07:53:40.158Z,91.90
2018-08-24T07:56:15.628Z,91.10
2018-08-24T07:58:51.382Z,91.50
2018-08-24T08:01:27.698Z,90.70
2018-08-24T08:04:04.990Z,90.30
2018-08-24T08:06:40.273Z,89.60
2018-08-24T08:09:16.495Z,88.80
2018-08-24T08:11:52.270Z,89.70
2018-08-24T08:14:28.316Z,88.70
2018-08-24T08:17:03.895Z,88.00
2018-08-24T08:19:39.537Z,88.20
2018-08-24T08:22:15.022Z,87.50
2018-08-24T08:24:50.494Z,87.20
2018-08-24T08:27:25.903Z,86.30
2018-08-24T08:30:02.778Z,86.10
2018-08-24T08:32:38.069Z,83.90
2018-08-24T08:35:13.330Z,85.00
2018-08-24T08:37:48.590Z,83.40
2018-08-24T08:40:24.019Z,84.00
2018-08-24T08:42:59.473Z,83.90
2018-08-24T08:45:35.112Z,83.70
2018-08-24T08:48:10.521Z,82.10
2018-08-24T08:50:45.920Z,80.80
2018-08-24T08:53:21.144Z,77.80
2018-08-24T08:55:56.864Z,79.50
2018-08-24T08:58:32.198Z,78.30
2018-08-24T09:01:07.642Z,79.60
2018-08-24T09:03:43.227Z,77.50
2018-08-24T09:06:19.813Z,81.90
2018-08-24T09:08:56.768Z,83.30
2018-08-24T09:11:32.180Z,84.70
2018-08-24T09:14:07.930Z,84.30
2018-08-24T09:16:43.445Z,86.80
2018-08-24T09:19:23.802Z,87.00
2018-08-24T09:22:04.770Z,87.30
2018-08-24T09:24:45.608Z,87.60
2018-08-24T09:27:26.140Z,86.80
2018-08-24T09:30:02.880Z,86.80
2018-08-24T09:32:38.525Z,86.40
2018-08-24T09:35:13.922Z,86.10
2018-08-24T09:37:49.590Z,86.60
2018-08-24T09:40:31.028Z,87.00
2018-08-24T09:43:13.090Z,87.60
2018-08-24T09:45:48.395Z,87.60
2018-08-24T09:48:26.140Z,88.00
2018-08-24T09:51:06.929Z,87.30
2018-08-24T09:54:15.039Z,87.00
2018-08-24T09:56:50.566Z,86.70
2018-08-24T09:59:27.150Z,85.50
2018-08-24T10:02:07.937Z,87.70
2018-08-24T10:04:49.265Z,82.80
2018-08-24T10:07:30.107Z,80.80
2018-08-24T10:10:06.018Z,79.50
2018-08-24T10:12:41.597Z,80.10
2018-08-24T10:15:16.871Z,75.10
2018-08-24T10:17:52.564Z,72.60
2018-08-24T10:20:27.818Z,68.90
2018-08-24T10:23:03.805Z,63.40
2018-08-24T10:25:39.354Z,63.30
2018-08-24T10:28:15.339Z,61.80
2018-08-24T10:30:51.290Z,59.30
2018-08-24T10:33:26.695Z,63.50
2018-08-24T10:36:02.530Z,61.60
2018-08-24T10:38:38.573Z,61.80
2018-08-24T10:41:13.914Z,56.40
2018-08-24T10:43:49.186Z,56.20
2018-08-24T10:46:24.603Z,56.60
2018-08-24T10:49:00.036Z,54.70
2018-08-24T10:51:35.369Z,54.90
2018-08-24T10:54:10.813Z,57.30
2018-08-24T10:56:46.262Z,53.20
2018-08-24T10:59:21.745Z,52.30
2018-08-24T11:01:57.170Z,53.80
2018-08-24T11:04:32.682Z,54.80
2018-08-24T11:07:08.364Z,55.60
2018-08-24T11:09:44.568Z,57.80
2018-08-24T11:12:19.846Z,55.80
2018-08-24T11:14:55.308Z,55.70
2018-08-24T11:18:35.503Z,56.40
2018-08-24T11:21:10.971Z,57.10
2018-08-24T11:23:47.118Z,58.10
2018-08-24T11:26:23.098Z,60.20
2018-08-24T11:28:58.313Z,63.80
2018-08-24T11:31:34.022Z,66.90
2018-08-24T11:34:09.701Z,67.70
2018-08-24T11:36:45.349Z,69.70
2018-08-24T11:39:20.903Z,69.70
2018-08-24T11:41:56.452Z,72.00
2018-08-24T11:44:32.087Z,68.50
2018-08-24T11:47:07.682Z,66.40
2018-08-24T11:49:43.669Z,62.70
2018-08-24T11:52:20.289Z,64.60
2018-08-24T11:54:55.698Z,63.70
2018-08-24T11:57:30.997Z,62.50
2018-08-24T12:00:07.334Z,64.30
2018-08-24T12:02:42.508Z,61.90
2018-08-24T12:05:18.823Z,64.90
2018-08-24T12:07:54.335Z,68.00
2018-08-24T12:10:30.118Z,68.30
2018-08-24T12:13:05.958Z,67.70
2018-08-24T12:15:41.614Z,69.40
2018-08-24T12:18:16.977Z,68.70
2018-08-24T12:20:52.449Z,65.10
2018-08-24T12:23:27.933Z,66.10
2018-08-24T12:26:03.416Z,66.10
2018-08-24T12:28:38.693Z,65.10
2018-08-24T12:31:14.387Z,67.00
2018-08-24T12:33:49.610Z,68.00
2018-08-24T12:36:24.935Z,67.60
2018-08-24T12:39:00.598Z,66.80
2018-08-24T12:41:35.911Z,68.20
2018-08-24T12:44:11.461Z,67.20
2018-08-24T12:46:47.349Z,67.80
2018-08-24T12:49:22.919Z,67.00
2018-08-24T12:51:58.666Z,68.90
2018-08-24T12:54:35.489Z,69.70
2018-08-24T12:57:10.709Z,70.00
2018-08-24T12:59:46.125Z,68.20
2018-08-24T13:02:21.833Z,70.30
2018-08-24T13:04:57.563Z,67.30
2018-08-24T13:07:33.270Z,65.60
2018-08-24T13:10:08.988Z,65.50
2018-08-24T13:12:44.418Z,64.00
2018-08-24T13:15:20.457Z,64.80
2018-08-24T13:17:56.402Z,64.60
2018-08-24T13:20:31.782Z,66.30
2018-08-24T13:23:06.987Z,60.00
2018-08-24T13:25:42.737Z,62.80
2018-08-24T13:28:18.546Z,64.00
2018-08-24T13:30:54.386Z,63.30
2018-08-24T13:33:29.830Z,65.00
2018-08-24T13:36:05.434Z,65.70
2018-08-24T13:38:40.897Z,66.90
2018-08-24T13:41:16.337Z,65.80
2018-08-24T13:43:51.775Z,66.10
2018-08-24T13:46:27.196Z,65.70
2018-08-24T13:49:02.839Z,66.10
2018-08-24T13:51:38.298Z,66.10
2018-08-24T13:54:13.620Z,66.70
2018-08-24T13:56:49.544Z,68.20
2018-08-24T13:59:25.594Z,67.30
2018-08-24T14:02:01.283Z,66.60
2018-08-24T14:04:36.889Z,66.50
2018-08-24T14:07:12.378Z,66.80
2018-08-24T14:09:47.940Z,65.70
2018-08-24T14:12:23.508Z,65.80
2018-08-24T14:14:58.877Z,64.80
2018-08-24T14:17:33.837Z,64.50
2018-08-24T14:20:09.085Z,64.60
2018-08-24T14:22:44.524Z,65.00
2018-08-24T14:25:19.825Z,65.40
2018-08-24T14:27:55.128Z,63.80
2018-08-24T14:30:30.757Z,65.10
2018-08-24T14:33:05.777Z,65.50
2018-08-24T14:35:40.637Z,66.00
2018-08-24T14:38:22.527Z,65.50
2018-08-24T14:40:57.687Z,67.20
2018-08-24T14:43:33.378Z,66.90
2018-08-24T14:46:13.617Z,65.90
2018-08-24T14:48:48.393Z,64.00
2018-08-24T14:51:23.234Z,64.50
2018-08-24T14:53:57.988Z,64.00
2018-08-24T14:56:32.843Z,63.30
2018-08-24T14:59:08.936Z,63.80
2018-08-24T15:01:43.662Z,63.80
2018-08-24T15:04:18.849Z,62.90
2018-08-24T15:06:54.647Z,62.70
2018-08-24T15:09:29.725Z,63.80
2018-08-24T15:12:04.506Z,63.80
2018-08-24T15:14:39.310Z,64.20
2018-08-24T15:17:20.742Z,63.80
2018-08-24T15:19:55.419Z,63.90
2018-08-24T15:22:31.486Z,65.00
2018-08-24T15:25:06.675Z,63.90
2018-08-24T15:27:41.419Z,64.20
2018-08-24T15:30:16.307Z,65.00
2018-08-24T15:32:51.142Z,64.60
2018-08-24T15:35:25.907Z,64.30
2018-08-24T15:38:01.064Z,64.10
2018-08-24T15:40:35.931Z,65.20
2018-08-24T15:43:11.069Z,63.60
2018-08-24T15:45:46.544Z,63.50
2018-08-24T15:48:21.636Z,62.40
2018-08-24T15:50:56.484Z,63.40
2018-08-24T15:53:31.272Z,62.20
2018-08-24T15:56:06.367Z,63.00
2018-08-24T15:58:41.406Z,65.30
2018-08-24T16:01:16.431Z,65.50
2018-08-24T16:03:51.475Z,67.40
2018-08-24T16:06:26.284Z,70.60
2018-08-24T16:09:01.223Z,70.50
2018-08-24T16:11:36.679Z,72.20
2018-08-24T16:14:11.766Z,70.70
2018-08-24T16:16:47.014Z,70.40
2018-08-24T16:19:21.805Z,69.70
2018-08-24T16:21:56.636Z,70.00
2018-08-24T16:24:31.699Z,72.40
2018-08-24T16:27:08.705Z,72.30
2018-08-24T16:29:43.732Z,71.90
2018-08-24T16:32:18.718Z,71.10
2018-08-24T16:34:57.031Z,71.50
2018-08-24T16:37:32.083Z,71.50
2018-08-24T16:40:07.735Z,73.40
2018-08-24T16:42:42.522Z,73.50
2018-08-24T16:45:17.466Z,73.30
2018-08-24T16:47:52.329Z,73.00
2018-08-24T16:50:27.291Z,73.20
2018-08-24T16:53:02.863Z,73.30
2018-08-24T16:55:37.736Z,73.00
2018-08-24T16:58:12.655Z,73.50
2018-08-24T17:00:48.081Z,73.00
2018-08-24T17:03:22.975Z,73.60
2018-08-24T17:05:58.168Z,72.90
2018-08-24T17:08:32.914Z,75.00
2018-08-24T17:11:08.230Z,73.50
2018-08-24T17:13:43.268Z,74.10
2018-08-24T17:16:18.111Z,74.30
2018-08-24T17:18:52.901Z,73.50
2018-08-24T17:21:27.899Z,74.40
2018-08-24T17:24:02.774Z,74.10
2018-08-24T17:26:37.751Z,75.40
2018-08-24T17:29:19.237Z,74.50
2018-08-24T17:31:54.437Z,74.70
2018-08-24T17:34:29.397Z,75.50
2018-08-24T17:37:05.102Z,75.40
2018-08-24T17:39:39.956Z,75.60
2018-08-24T17:42:14.693Z,76.20
2018-08-24T17:44:49.686Z,76.20
2018-08-24T17:47:24.746Z,75.10
2018-08-24T17:49:59.698Z,74.90
2018-08-24T17:52:34.762Z,75.40
2018-08-24T17:55:10.041Z,74.60
2018-08-24T17:57:44.967Z,75.30
2018-08-24T18:00:19.936Z,75.10
2018-08-24T18:02:54.610Z,75.50
2018-08-24T18:05:29.609Z,75.60
2018-08-24T18:08:06.045Z,75.80
2018-08-24T18:10:41.436Z,75.80
2018-08-24T18:13:16.618Z,77.60
2018-08-24T18:15:51.645Z,77.00
2018-08-24T18:18:26.555Z,76.90
2018-08-24T18:21:01.411Z,76.90
2018-08-24T18:23:36.204Z,76.70
2018-08-24T18:26:11.727Z,76.50
2018-08-24T18:28:47.049Z,75.50
2018-08-24T18:31:21.887Z,75.80
2018-08-24T18:33:56.540Z,76.00
2018-08-24T18:36:31.908Z,76.10
2018-08-24T18:39:09.547Z,76.60
2018-08-24T18:41:44.637Z,76.10
2018-08-24T18:44:19.602Z,75.80
2018-08-24T18:46:54.476Z,75.80
2018-08-24T18:49:29.388Z,76.70
2018-08-24T18:52:04.702Z,76.80
2018-08-24T18:54:39.584Z,77.60
2018-08-24T18:57:14.692Z,76.80
2018-08-24T18:59:50.326Z,77.30
2018-08-24T19:02:25.473Z,76.60
2018-08-24T19:05:00.446Z,77.70
2018-08-24T19:07:36.368Z,77.90
2018-08-24T19:10:11.395Z,75.90
2018-08-24T19:12:46.330Z,76.10
2018-08-24T19:15:28.088Z,76.10
2018-08-24T19:18:08.652Z,75.20
2018-08-24T19:20:48.999Z,75.30
2018-08-24T19:23:24.275Z,75.10
2018-08-24T19:25:59.093Z,76.20
2018-08-24T19:28:39.316Z,75.70
2018-08-24T19:31:14.491Z,76.50
2018-08-24T19:33:49.520Z,76.80
2018-08-24T19:36:24.497Z,76.20
2018-08-24T19:38:59.697Z,76.50
2018-08-24T19:41:39.845Z,76.80
2018-08-24T19:44:14.838Z,77.20
2018-08-24T19:46:49.931Z,77.30
2018-08-24T19:49:25.100Z,77.90
2018-08-24T19:51:59.965Z,77.60
2018-08-24T19:54:35.260Z,77.70
2018-08-24T19:57:15.644Z,77.70
2018-08-24T19:59:50.325Z,77.70
2018-08-24T20:02:25.010Z,77.50
2018-08-24T20:05:00.091Z,78.30
2018-08-24T20:07:40.192Z,77.80
2018-08-24T20:10:18.124Z,78.00
2018-08-24T20:12:52.787Z,77.60
2018-08-24T20:15:32.994Z,77.30
2018-08-24T20:18:08.070Z,77.70
2018-08-24T20:20:42.877Z,77.50
2018-08-24T20:23:17.925Z,77.30
2018-08-24T20:25:53.086Z,77.80
2018-08-24T20:28:28.187Z,78.20
2018-08-24T20:31:11.008Z,78.90
2018-08-24T20:33:45.950Z,78.80
2018-08-24T20:36:20.886Z,78.90
2018-08-24T20:38:55.772Z,78.80
2018-08-24T20:41:30.718Z,78.60
2018-08-24T20:44:05.487Z,78.90
2018-08-24T20:46:40.951Z,78.90
2018-08-24T20:49:15.847Z,78.80
2018-08-24T20:51:50.581Z,79.10
2018-08-24T20:54:25.404Z,79.20
2018-08-24T20:57:00.528Z,79.50
2018-08-24T20:59:35.593Z,79.50
2018-08-24T21:02:10.832Z,79.40
2018-08-24T21:04:46.374Z,79.20
2018-08-24T21:07:21.791Z,79.20
2018-08-24T21:09:56.701Z,79.60
2018-08-24T21:12:31.535Z,79.60
2018-08-24T21:15:06.774Z,79.40
2018-08-24T21:17:41.611Z,79.20
2018-08-24T21:20:23.374Z,79.60
2018-08-24T21:22:58.670Z,79.20
2018-08-24T21:25:33.366Z,79.60
2018-08-24T21:28:08.456Z,80.00
2018-08-24T21:30:43.483Z,80.50
2018-08-24T21:33:18.425Z,80.10
2018-08-24T21:35:54.185Z,80.30
2018-08-24T21:38:29.116Z,81.00
2018-08-24T21:41:04.159Z,80.10
2018-08-24T21:43:38.951Z,80.50
2018-08-24T21:46:13.711Z,80.50
2018-08-24T21:48:49.587Z,79.50
2018-08-24T21:51:24.470Z,79.60
2018-08-24T21:53:59.767Z,79.50
2018-08-24T21:56:34.703Z,79.20
2018-08-24T21:59:09.526Z,78.70
2018-08-24T22:01:44.704Z,78.20
2018-08-24T22:04:19.526Z,77.50
2018-08-24T22:06:54.199Z,77.50
2018-08-24T22:09:29.022Z,77.60
2018-08-24T22:12:03.963Z,77.70
2018-08-24T22:14:38.864Z,77.20
2018-08-24T22:17:20.535Z,77.00
2018-08-24T22:19:55.438Z,77.10
2018-08-24T22:22:30.289Z,77.60
2018-08-24T22:25:05.111Z,78.10
2018-08-24T22:27:40.162Z,77.40
2018-08-24T22:30:15.378Z,77.80
2018-08-24T22:32:50.514Z,77.60
2018-08-24T22:35:25.588Z,77.30
2018-08-24T22:38:01.100Z,77.50
2018-08-24T22:40:35.793Z,77.30
2018-08-24T22:43:16.815Z,77.50
2018-08-24T22:45:51.863Z,77.70
2018-08-24T22:48:26.786Z,77.60
2018-08-24T22:51:02.047Z,77.20
2018-08-24T22:53:36.999Z,77.10
2018-08-24T22:56:11.928Z,78.20
2018-08-24T22:58:47.537Z,77.80
2018-08-24T23:01:22.376Z,77.70
2018-08-24T23:03:57.189Z,78.50
2018-08-24T23:06:32.316Z,77.90
2018-08-24T23:09:08.594Z,78.40
2018-08-24T23:11:43.448Z,78.20
2018-08-24T23:14:18.367Z,77.70
2018-08-24T23:16:53.193Z,78.40
2018-08-24T23:19:27.959Z,78.50
2018-08-24T23:22:04.095Z,78.40
2018-08-24T23:24:38.859Z,78.70
2018-08-24T23:27:13.926Z,78.60
2018-08-24T23:29:49.554Z,78.40
2018-08-24T23:32:24.446Z,78.80
2018-08-24T23:34:59.318Z,79.50
2018-08-24T23:37:34.243Z,79.50
2018-08-24T23:40:08.989Z,79.50
2018-08-24T23:42:43.917Z,79.20
2018-08-24T23:45:18.762Z,79.00
2018-08-24T23:47:53.449Z,79.00
2018-08-24T23:50:28.565Z,79.60
2018-08-24T23:53:03.330Z,79.70
2018-08-24T23:55:38.360Z,79.90
2018-08-24T23:58:13.175Z,79.90
